WMKJ/JHB METAR and TAF weather

Enter ICAO airport designator
Station Type Date Time Source
WMKJ METAR 2022/05/24 11:00 UTC NOAA

WMKJ 241100Z 00000KT 8000 -TSRA FEW010 FEW016CB SCT020 26/25 Q1008


Station Type Date Time Source
WMKJ Decoded METAR 2022/05/24 11:00 UTC NOAA

Johore Bharu / Senai, Malaysia (WMKJ) 01-38N 103-40E 40M
May 24, 2022 - 07:00 AM EDT / 2022.05.24 1100 UTC
Wind: Calm:0
Visibility: 4 mile(s):0
Sky conditions: partly cloudy
Weather: light rain with thunder; Cumulonimbus clouds observed
Temperature: 78 F (26 C)
Dew Point: 77 F (25 C)
Relative Humidity: 94%
Pressure (altimeter): 29.77 in. Hg (1008 hPa)
ob: WMKJ 241100Z 00000KT 8000 -TSRA FEW010 FEW016CB SCT020 26/25 Q1008
cycle: 11

Station Type Date Time Source
WMKJ TAF 2022/05/24 12:09 UTC NOAA

TAF TAF WMKJ 241100Z 2412/2512 12005KT 9999 FEW017CB PROB30
TEMPO 2412/2414 5000 TSRA FEW016CB SCT018

Example: see airport list